sensor_id;sensor_type;location;lat;lon;timestamp;P1;durP1;ratioP1;P2;durP2;ratioP2
12467;SDS011;57850;52.922;6.256;2022-09-24T00:01:50;62.30;;;44.83;;
12467;SDS011;57850;52.922;6.256;2022-09-24T00:04:16;59.95;;;44.80;;
12467;SDS011;57850;52.922;6.256;2022-09-24T00:06:44;66.63;;;47.65;;
12467;SDS011;57850;52.922;6.256;2022-09-24T00:09:12;67.68;;;49.22;;
12467;SDS011;57850;52.922;6.256;2022-09-24T00:11:40;64.40;;;47.80;;
12467;SDS011;57850;52.922;6.256;2022-09-24T00:14:08;68.00;;;48.10;;
12467;SDS011;57850;52.922;6.256;2022-09-24T00:16:36;74.35;;;49.78;;
12467;SDS011;57850;52.922;6.256;2022-09-24T00:19:04;71.22;;;49.88;;
12467;SDS011;57850;52.922;6.256;2022-09-24T00:21:32;60.90;;;48.67;;
12467;SDS011;57850;52.922;6.256;2022-09-24T00:24:00;73.68;;;52.15;;
12467;SDS011;57850;52.922;6.256;2022-09-24T00:26:29;70.15;;;49.78;;
12467;SDS011;57850;52.922;6.256;2022-09-24T00:29:15;72.68;;;51.20;;
12467;SDS011;57850;52.922;6.256;2022-09-24T00:31:45;68.40;;;50.53;;
12467;SDS011;57850;52.922;6.256;2022-09-24T00:34:12;77.15;;;54.97;;
12467;SDS011;57850;52.922;6.256;2022-09-24T00:36:38;72.50;;;52.78;;
12467;SDS011;57850;52.922;6.256;2022-09-24T00:39:05;77.78;;;53.58;;
12467;SDS011;57850;52.922;6.256;2022-09-24T00:41:33;76.82;;;52.80;;
12467;SDS011;57850;52.922;6.256;2022-09-24T00:47:03;73.32;;;52.38;;
12467;SDS011;57850;52.922;6.256;2022-09-24T00:49:30;71.30;;;52.17;;
12467;SDS011;57850;52.922;6.256;2022-09-24T00:51:56;73.90;;;51.75;;
12467;SDS011;57850;52.922;6.256;2022-09-24T00:54:24;78.13;;;52.63;;
12467;SDS011;57850;52.922;6.256;2022-09-24T00:56:54;72.32;;;51.30;;
12467;SDS011;57850;52.922;6.256;2022-09-24T00:59:22;74.45;;;54.42;;
12467;SDS011;57850;52.922;6.256;2022-09-24T01:01:50;77.15;;;54.55;;
12467;SDS011;57850;52.922;6.256;2022-09-24T01:04:25;77.28;;;54.15;;
12467;SDS011;57850;52.922;6.256;2022-09-24T01:06:56;73.85;;;52.55;;
12467;SDS011;57850;52.922;6.256;2022-09-24T01:09:26;76.38;;;53.75;;
12467;SDS011;57850;52.922;6.256;2022-09-24T01:11:55;75.72;;;55.67;;
12467;SDS011;57850;52.922;6.256;2022-09-24T01:14:33;78.18;;;56.60;;
12467;SDS011;57850;52.922;6.256;2022-09-24T01:17:14;79.20;;;52.97;;
12467;SDS011;57850;52.922;6.256;2022-09-24T01:20:02;74.10;;;53.80;;
12467;SDS011;57850;52.922;6.256;2022-09-24T01:22:49;76.32;;;53.15;;
12467;SDS011;57850;52.922;6.256;2022-09-24T01:25:29;75.30;;;53.92;;
12467;SDS011;57850;52.922;6.256;2022-09-24T01:28:07;76.18;;;55.28;;
12467;SDS011;57850;52.922;6.256;2022-09-24T01:30:49;75.30;;;52.53;;
12467;SDS011;57850;52.922;6.256;2022-09-24T01:33:24;78.10;;;55.83;;
12467;SDS011;57850;52.922;6.256;2022-09-24T01:35:54;82.00;;;55.63;;
12467;SDS011;57850;52.922;6.256;2022-09-24T01:38:26;79.55;;;54.25;;
12467;SDS011;57850;52.922;6.256;2022-09-24T01:40:55;79.63;;;56.20;;
12467;SDS011;57850;52.922;6.256;2022-09-24T01:43:26;83.13;;;55.78;;
12467;SDS011;57850;52.922;6.256;2022-09-24T01:45:56;78.90;;;53.80;;
12467;SDS011;57850;52.922;6.256;2022-09-24T01:48:26;70.85;;;54.55;;
12467;SDS011;57850;52.922;6.256;2022-09-24T01:50:56;75.10;;;55.08;;
12467;SDS011;57850;52.922;6.256;2022-09-24T01:53:28;77.07;;;54.58;;
12467;SDS011;57850;52.922;6.256;2022-09-24T01:55:57;81.88;;;56.38;;
12467;SDS011;57850;52.922;6.256;2022-09-24T01:58:28;77.55;;;55.60;;
12467;SDS011;57850;52.922;6.256;2022-09-24T02:01:02;79.57;;;56.33;;
12467;SDS011;57850;52.922;6.256;2022-09-24T02:03:34;77.80;;;56.55;;
12467;SDS011;57850;52.922;6.256;2022-09-24T02:06:08;78.60;;;54.60;;
12467;SDS011;57850;52.922;6.256;2022-09-24T02:08:40;77.45;;;56.83;;
12467;SDS011;57850;52.922;6.256;2022-09-24T02:11:11;80.47;;;55.55;;
12467;SDS011;57850;52.922;6.256;2022-09-24T02:13:41;81.03;;;57.70;;
12467;SDS011;57850;52.922;6.256;2022-09-24T02:16:14;78.18;;;55.42;;
12467;SDS011;57850;52.922;6.256;2022-09-24T02:18:47;78.65;;;56.03;;
12467;SDS011;57850;52.922;6.256;2022-09-24T02:21:17;80.22;;;55.13;;
12467;SDS011;57850;52.922;6.256;2022-09-24T02:23:49;77.05;;;55.28;;
12467;SDS011;57850;52.922;6.256;2022-09-24T02:26:19;79.60;;;55.05;;
12467;SDS011;57850;52.922;6.256;2022-09-24T02:28:46;69.38;;;53.47;;
12467;SDS011;57850;52.922;6.256;2022-09-24T02:31:15;83.53;;;56.65;;
12467;SDS011;57850;52.922;6.256;2022-09-24T02:33:46;78.43;;;54.45;;
12467;SDS011;57850;52.922;6.256;2022-09-24T02:36:33;73.97;;;54.72;;
12467;SDS011;57850;52.922;6.256;2022-09-24T02:39:00;71.95;;;52.58;;
12467;SDS011;57850;52.922;6.256;2022-09-24T02:41:27;73.18;;;53.40;;
12467;SDS011;57850;52.922;6.256;2022-09-24T02:43:55;75.57;;;53.88;;
12467;SDS011;57850;52.922;6.256;2022-09-24T02:46:23;78.35;;;54.70;;
12467;SDS011;57850;52.922;6.256;2022-09-24T02:48:51;79.75;;;54.13;;
12467;SDS011;57850;52.922;6.256;2022-09-24T02:51:17;80.78;;;54.72;;
12467;SDS011;57850;52.922;6.256;2022-09-24T02:53:44;73.82;;;53.85;;
12467;SDS011;57850;52.922;6.256;2022-09-24T02:56:10;73.65;;;54.03;;
12467;SDS011;57850;52.922;6.256;2022-09-24T02:58:37;78.38;;;53.08;;
12467;SDS011;57850;52.922;6.256;2022-09-24T03:01:04;73.97;;;51.85;;
12467;SDS011;57850;52.922;6.256;2022-09-24T03:03:32;77.00;;;53.50;;
12467;SDS011;57850;52.922;6.256;2022-09-24T03:05:59;70.05;;;51.67;;
12467;SDS011;57850;52.922;6.256;2022-09-24T03:08:26;70.53;;;51.47;;
12467;SDS011;57850;52.922;6.256;2022-09-24T03:10:55;71.07;;;49.30;;
12467;SDS011;57850;52.922;6.256;2022-09-24T03:13:21;73.45;;;50.05;;
12467;SDS011;57850;52.922;6.256;2022-09-24T03:15:49;74.57;;;52.88;;
12467;SDS011;57850;52.922;6.256;2022-09-24T03:18:15;73.53;;;51.78;;
12467;SDS011;57850;52.922;6.256;2022-09-24T03:20:52;70.60;;;51.95;;
12467;SDS011;57850;52.922;6.256;2022-09-24T03:23:19;69.60;;;49.72;;
12467;SDS011;57850;52.922;6.256;2022-09-24T03:25:46;68.32;;;52.03;;
12467;SDS011;57850;52.922;6.256;2022-09-24T03:28:12;71.53;;;50.47;;
12467;SDS011;57850;52.922;6.256;2022-09-24T03:30:39;67.78;;;50.50;;
12467;SDS011;57850;52.922;6.256;2022-09-24T03:33:23;69.22;;;47.72;;
12467;SDS011;57850;52.922;6.256;2022-09-24T03:35:55;67.95;;;50.03;;
12467;SDS011;57850;52.922;6.256;2022-09-24T03:38:22;64.38;;;48.22;;
12467;SDS011;57850;52.922;6.256;2022-09-24T03:40:48;64.63;;;47.65;;
12467;SDS011;57850;52.922;6.256;2022-09-24T03:43:15;65.13;;;48.85;;
12467;SDS011;57850;52.922;6.256;2022-09-24T03:45:42;66.03;;;47.65;;
12467;SDS011;57850;52.922;6.256;2022-09-24T03:48:08;65.97;;;47.67;;
12467;SDS011;57850;52.922;6.256;2022-09-24T03:50:35;63.63;;;47.65;;
12467;SDS011;57850;52.922;6.256;2022-09-24T03:53:03;60.63;;;45.92;;
12467;SDS011;57850;52.922;6.256;2022-09-24T03:55:29;65.65;;;46.05;;
12467;SDS011;57850;52.922;6.256;2022-09-24T03:57:56;61.78;;;45.75;;
12467;SDS011;57850;52.922;6.256;2022-09-24T04:00:22;69.22;;;49.40;;
12467;SDS011;57850;52.922;6.256;2022-09-24T04:02:49;65.22;;;47.17;;
12467;SDS011;57850;52.922;6.256;2022-09-24T04:05:16;63.80;;;46.17;;
12467;SDS011;57850;52.922;6.256;2022-09-24T04:07:43;59.53;;;46.97;;
12467;SDS011;57850;52.922;6.256;2022-09-24T04:10:12;61.95;;;46.65;;
12467;SDS011;57850;52.922;6.256;2022-09-24T04:12:38;63.47;;;46.47;;
12467;SDS011;57850;52.922;6.256;2022-09-24T04:15:05;65.47;;;47.15;;
12467;SDS011;57850;52.922;6.256;2022-09-24T04:17:32;64.72;;;46.55;;
12467;SDS011;57850;52.922;6.256;2022-09-24T04:19:59;64.32;;;45.03;;
12467;SDS011;57850;52.922;6.256;2022-09-24T04:22:26;62.20;;;45.45;;
12467;SDS011;57850;52.922;6.256;2022-09-24T04:24:53;60.30;;;42.45;;
12467;SDS011;57850;52.922;6.256;2022-09-24T04:27:21;63.78;;;45.50;;
12467;SDS011;57850;52.922;6.256;2022-09-24T04:29:47;64.63;;;45.38;;
12467;SDS011;57850;52.922;6.256;2022-09-24T04:32:14;62.17;;;44.90;;
12467;SDS011;57850;52.922;6.256;2022-09-24T04:34:41;66.13;;;46.63;;
12467;SDS011;57850;52.922;6.256;2022-09-24T04:37:08;60.55;;;44.35;;
12467;SDS011;57850;52.922;6.256;2022-09-24T04:39:34;62.67;;;44.75;;
12467;SDS011;57850;52.922;6.256;2022-09-24T04:42:01;57.70;;;43.55;;
12467;SDS011;57850;52.922;6.256;2022-09-24T04:44:29;60.45;;;44.72;;
12467;SDS011;57850;52.922;6.256;2022-09-24T04:46:55;61.80;;;45.97;;
12467;SDS011;57850;52.922;6.256;2022-09-24T04:49:27;59.38;;;44.70;;
12467;SDS011;57850;52.922;6.256;2022-09-24T04:51:54;61.08;;;44.47;;
12467;SDS011;57850;52.922;6.256;2022-09-24T04:54:22;67.47;;;45.15;;
12467;SDS011;57850;52.922;6.256;2022-09-24T04:56:49;62.80;;;45.63;;
12467;SDS011;57850;52.922;6.256;2022-09-24T04:59:15;60.00;;;45.08;;
12467;SDS011;57850;52.922;6.256;2022-09-24T05:01:43;59.97;;;46.30;;
12467;SDS011;57850;52.922;6.256;2022-09-24T05:04:11;61.10;;;44.38;;
12467;SDS011;57850;52.922;6.256;2022-09-24T05:06:37;64.13;;;46.90;;
12467;SDS011;57850;52.922;6.256;2022-09-24T05:09:04;66.15;;;45.78;;
12467;SDS011;57850;52.922;6.256;2022-09-24T05:11:31;60.92;;;45.30;;
12467;SDS011;57850;52.922;6.256;2022-09-24T05:13:57;61.08;;;45.97;;
12467;SDS011;57850;52.922;6.256;2022-09-24T05:16:25;62.80;;;45.22;;
12467;SDS011;57850;52.922;6.256;2022-09-24T05:18:53;63.38;;;45.95;;
12467;SDS011;57850;52.922;6.256;2022-09-24T05:21:20;62.60;;;46.60;;
12467;SDS011;57850;52.922;6.256;2022-09-24T05:23:47;65.47;;;45.88;;
12467;SDS011;57850;52.922;6.256;2022-09-24T05:26:13;68.82;;;47.28;;
12467;SDS011;57850;52.922;6.256;2022-09-24T05:28:57;68.15;;;46.85;;
12467;SDS011;57850;52.922;6.256;2022-09-24T05:31:25;67.47;;;47.35;;
12467;SDS011;57850;52.922;6.256;2022-09-24T05:33:53;67.57;;;47.85;;
12467;SDS011;57850;52.922;6.256;2022-09-24T05:36:20;67.47;;;45.75;;
12467;SDS011;57850;52.922;6.256;2022-09-24T05:38:46;73.60;;;48.25;;
12467;SDS011;57850;52.922;6.256;2022-09-24T05:41:13;71.50;;;47.22;;
12467;SDS011;57850;52.922;6.256;2022-09-24T05:43:40;63.20;;;44.28;;
12467;SDS011;57850;52.922;6.256;2022-09-24T05:46:06;63.92;;;45.80;;
12467;SDS011;57850;52.922;6.256;2022-09-24T05:48:33;63.80;;;45.33;;
12467;SDS011;57850;52.922;6.256;2022-09-24T05:51:01;66.80;;;45.83;;
12467;SDS011;57850;52.922;6.256;2022-09-24T05:53:27;67.15;;;46.13;;
12467;SDS011;57850;52.922;6.256;2022-09-24T05:55:54;64.90;;;46.00;;
12467;SDS011;57850;52.922;6.256;2022-09-24T05:58:21;67.15;;;46.65;;
12467;SDS011;57850;52.922;6.256;2022-09-24T06:00:48;61.15;;;44.38;;
12467;SDS011;57850;52.922;6.256;2022-09-24T06:03:15;66.15;;;46.92;;
12467;SDS011;57850;52.922;6.256;2022-09-24T06:05:43;67.40;;;46.00;;
12467;SDS011;57850;52.922;6.256;2022-09-24T06:08:14;63.67;;;43.42;;
12467;SDS011;57850;52.922;6.256;2022-09-24T06:10:42;69.72;;;45.83;;
12467;SDS011;57850;52.922;6.256;2022-09-24T06:13:09;65.00;;;43.70;;
12467;SDS011;57850;52.922;6.256;2022-09-24T06:15:38;61.42;;;43.20;;
12467;SDS011;57850;52.922;6.256;2022-09-24T06:18:05;63.38;;;44.50;;
12467;SDS011;57850;52.922;6.256;2022-09-24T06:20:32;64.85;;;44.70;;
12467;SDS011;57850;52.922;6.256;2022-09-24T06:22:58;64.35;;;42.85;;
12467;SDS011;57850;52.922;6.256;2022-09-24T06:25:28;59.85;;;42.28;;
12467;SDS011;57850;52.922;6.256;2022-09-24T06:27:55;60.45;;;41.45;;
12467;SDS011;57850;52.922;6.256;2022-09-24T06:30:25;56.38;;;40.45;;
12467;SDS011;57850;52.922;6.256;2022-09-24T06:32:52;59.75;;;41.60;;
12467;SDS011;57850;52.922;6.256;2022-09-24T06:35:20;56.60;;;38.92;;
12467;SDS011;57850;52.922;6.256;2022-09-24T06:37:47;54.80;;;37.92;;
12467;SDS011;57850;52.922;6.256;2022-09-24T06:40:14;53.88;;;35.15;;
12467;SDS011;57850;52.922;6.256;2022-09-24T06:42:42;51.65;;;35.63;;
12467;SDS011;57850;52.922;6.256;2022-09-24T06:45:10;50.90;;;35.30;;
12467;SDS011;57850;52.922;6.256;2022-09-24T06:47:37;48.95;;;33.20;;
12467;SDS011;57850;52.922;6.256;2022-09-24T06:50:04;48.35;;;33.55;;
12467;SDS011;57850;52.922;6.256;2022-09-24T06:52:32;45.67;;;32.72;;
12467;SDS011;57850;52.922;6.256;2022-09-24T06:54:59;47.88;;;32.60;;
12467;SDS011;57850;52.922;6.256;2022-09-24T06:57:26;48.40;;;32.05;;
12467;SDS011;57850;52.922;6.256;2022-09-24T06:59:54;41.88;;;28.65;;
12467;SDS011;57850;52.922;6.256;2022-09-24T07:02:21;38.75;;;26.98;;
12467;SDS011;57850;52.922;6.256;2022-09-24T07:04:48;40.67;;;28.15;;
12467;SDS011;57850;52.922;6.256;2022-09-24T07:07:15;44.42;;;27.63;;
12467;SDS011;57850;52.922;6.256;2022-09-24T07:09:57;34.80;;;23.17;;
12467;SDS011;57850;52.922;6.256;2022-09-24T07:12:25;36.22;;;18.90;;
12467;SDS011;57850;52.922;6.256;2022-09-24T07:14:55;20.23;;;14.07;;
12467;SDS011;57850;52.922;6.256;2022-09-24T07:17:22;24.65;;;13.77;;
12467;SDS011;57850;52.922;6.256;2022-09-24T07:19:49;20.88;;;13.35;;
12467;SDS011;57850;52.922;6.256;2022-09-24T07:22:16;20.45;;;12.20;;
12467;SDS011;57850;52.922;6.256;2022-09-24T07:24:43;17.65;;;11.43;;
12467;SDS011;57850;52.922;6.256;2022-09-24T07:27:09;24.52;;;10.82;;
12467;SDS011;57850;52.922;6.256;2022-09-24T07:29:37;23.45;;;10.57;;
12467;SDS011;57850;52.922;6.256;2022-09-24T07:32:05;19.30;;;9.40;;
12467;SDS011;57850;52.922;6.256;2022-09-24T07:34:32;16.48;;;7.78;;
12467;SDS011;57850;52.922;6.256;2022-09-24T07:36:58;18.13;;;6.90;;
12467;SDS011;57850;52.922;6.256;2022-09-24T07:39:26;16.48;;;4.82;;
12467;SDS011;57850;52.922;6.256;2022-09-24T07:41:52;16.65;;;4.35;;
12467;SDS011;57850;52.922;6.256;2022-09-24T07:44:20;31.02;;;8.25;;
12467;SDS011;57850;52.922;6.256;2022-09-24T07:46:47;10.07;;;3.95;;
12467;SDS011;57850;52.922;6.256;2022-09-24T07:49:15;8.65;;;2.72;;
12467;SDS011;57850;52.922;6.256;2022-09-24T07:51:43;7.70;;;2.95;;
12467;SDS011;57850;52.922;6.256;2022-09-24T07:54:10;6.90;;;2.55;;
12467;SDS011;57850;52.922;6.256;2022-09-24T07:56:37;9.75;;;2.40;;
12467;SDS011;57850;52.922;6.256;2022-09-24T07:59:04;7.45;;;2.30;;
12467;SDS011;57850;52.922;6.256;2022-09-24T08:01:31;11.55;;;2.75;;
12467;SDS011;57850;52.922;6.256;2022-09-24T08:03:59;15.15;;;2.55;;
12467;SDS011;57850;52.922;6.256;2022-09-24T08:06:27;8.85;;;2.78;;
12467;SDS011;57850;52.922;6.256;2022-09-24T08:08:57;12.63;;;3.03;;
12467;SDS011;57850;52.922;6.256;2022-09-24T08:11:24;10.65;;;2.85;;
12467;SDS011;57850;52.922;6.256;2022-09-24T08:13:51;6.88;;;2.03;;
12467;SDS011;57850;52.922;6.256;2022-09-24T08:16:17;19.00;;;2.85;;
12467;SDS011;57850;52.922;6.256;2022-09-24T08:18:46;9.55;;;2.22;;
12467;SDS011;57850;52.922;6.256;2022-09-24T08:21:13;10.50;;;3.40;;
12467;SDS011;57850;52.922;6.256;2022-09-24T08:23:41;6.15;;;2.00;;
12467;SDS011;57850;52.922;6.256;2022-09-24T08:26:09;7.65;;;2.15;;
12467;SDS011;57850;52.922;6.256;2022-09-24T08:28:36;9.23;;;2.38;;
12467;SDS011;57850;52.922;6.256;2022-09-24T08:31:05;7.22;;;2.53;;
12467;SDS011;57850;52.922;6.256;2022-09-24T08:33:33;8.57;;;2.40;;
12467;SDS011;57850;52.922;6.256;2022-09-24T08:36:00;6.25;;;1.80;;
12467;SDS011;57850;52.922;6.256;2022-09-24T08:38:28;11.02;;;2.25;;
12467;SDS011;57850;52.922;6.256;2022-09-24T08:40:59;9.00;;;2.10;;
12467;SDS011;57850;52.922;6.256;2022-09-24T08:43:36;9.32;;;2.33;;
12467;SDS011;57850;52.922;6.256;2022-09-24T08:46:12;8.95;;;2.70;;
12467;SDS011;57850;52.922;6.256;2022-09-24T08:48:59;10.00;;;2.00;;
12467;SDS011;57850;52.922;6.256;2022-09-24T08:51:28;7.97;;;2.03;;
12467;SDS011;57850;52.922;6.256;2022-09-24T08:54:01;11.60;;;2.33;;
12467;SDS011;57850;52.922;6.256;2022-09-24T08:56:34;7.30;;;2.25;;
12467;SDS011;57850;52.922;6.256;2022-09-24T08:59:04;13.15;;;2.58;;
12467;SDS011;57850;52.922;6.256;2022-09-24T09:01:51;8.98;;;2.05;;
12467;SDS011;57850;52.922;6.256;2022-09-24T09:04:29;7.15;;;2.22;;
12467;SDS011;57850;52.922;6.256;2022-09-24T09:07:07;11.18;;;2.20;;
12467;SDS011;57850;52.922;6.256;2022-09-24T09:09:43;9.95;;;2.10;;
12467;SDS011;57850;52.922;6.256;2022-09-24T09:12:16;7.22;;;2.30;;
12467;SDS011;57850;52.922;6.256;2022-09-24T09:14:48;6.40;;;2.00;;
12467;SDS011;57850;52.922;6.256;2022-09-24T09:17:23;9.02;;;2.03;;
12467;SDS011;57850;52.922;6.256;2022-09-24T09:19:57;8.15;;;2.10;;
12467;SDS011;57850;52.922;6.256;2022-09-24T09:22:28;7.10;;;2.00;;
12467;SDS011;57850;52.922;6.256;2022-09-24T09:25:02;5.68;;;1.67;;
12467;SDS011;57850;52.922;6.256;2022-09-24T09:27:39;4.85;;;1.63;;
12467;SDS011;57850;52.922;6.256;2022-09-24T09:30:10;6.68;;;1.80;;
12467;SDS011;57850;52.922;6.256;2022-09-24T09:32:58;5.03;;;1.67;;
12467;SDS011;57850;52.922;6.256;2022-09-24T09:35:43;8.70;;;2.78;;
12467;SDS011;57850;52.922;6.256;2022-09-24T09:38:18;7.07;;;1.98;;
12467;SDS011;57850;52.922;6.256;2022-09-24T09:40:50;9.10;;;2.20;;
12467;SDS011;57850;52.922;6.256;2022-09-24T09:43:24;10.77;;;2.53;;
12467;SDS011;57850;52.922;6.256;2022-09-24T09:45:55;5.78;;;1.83;;
12467;SDS011;57850;52.922;6.256;2022-09-24T09:48:38;8.13;;;1.73;;
12467;SDS011;57850;52.922;6.256;2022-09-24T09:51:12;2.83;;;1.60;;
12467;SDS011;57850;52.922;6.256;2022-09-24T09:53:52;8.27;;;2.75;;
12467;SDS011;57850;52.922;6.256;2022-09-24T09:56:24;6.85;;;1.52;;
12467;SDS011;57850;52.922;6.256;2022-09-24T09:59:02;8.05;;;2.00;;
12467;SDS011;57850;52.922;6.256;2022-09-24T10:01:33;5.97;;;2.00;;
12467;SDS011;57850;52.922;6.256;2022-09-24T10:04:01;5.93;;;1.60;;
12467;SDS011;57850;52.922;6.256;2022-09-24T10:06:29;6.88;;;1.70;;
12467;SDS011;57850;52.922;6.256;2022-09-24T10:09:07;7.80;;;2.10;;
12467;SDS011;57850;52.922;6.256;2022-09-24T10:11:37;5.05;;;1.27;;
12467;SDS011;57850;52.922;6.256;2022-09-24T10:14:08;7.28;;;1.70;;
12467;SDS011;57850;52.922;6.256;2022-09-24T10:16:37;6.20;;;1.92;;
12467;SDS011;57850;52.922;6.256;2022-09-24T10:19:11;5.00;;;1.63;;
12467;SDS011;57850;52.922;6.256;2022-09-24T10:21:40;6.32;;;1.45;;
12467;SDS011;57850;52.922;6.256;2022-09-24T10:24:10;5.03;;;1.52;;
12467;SDS011;57850;52.922;6.256;2022-09-24T10:26:42;6.60;;;1.80;;
12467;SDS011;57850;52.922;6.256;2022-09-24T10:29:12;5.30;;;1.45;;
12467;SDS011;57850;52.922;6.256;2022-09-24T10:31:59;8.35;;;1.70;;
12467;SDS011;57850;52.922;6.256;2022-09-24T10:34:27;5.10;;;1.45;;
12467;SDS011;57850;52.922;6.256;2022-09-24T10:36:57;7.50;;;1.60;;
12467;SDS011;57850;52.922;6.256;2022-09-24T10:39:26;7.03;;;1.63;;
12467;SDS011;57850;52.922;6.256;2022-09-24T10:41:53;5.00;;;1.63;;
12467;SDS011;57850;52.922;6.256;2022-09-24T10:44:24;6.90;;;1.63;;
12467;SDS011;57850;52.922;6.256;2022-09-24T10:47:04;5.18;;;1.70;;
12467;SDS011;57850;52.922;6.256;2022-09-24T10:49:59;5.90;;;1.83;;
12467;SDS011;57850;52.922;6.256;2022-09-24T10:52:42;6.72;;;1.90;;
12467;SDS011;57850;52.922;6.256;2022-09-24T10:55:15;6.82;;;2.22;;
12467;SDS011;57850;52.922;6.256;2022-09-24T10:57:53;5.70;;;2.08;;
12467;SDS011;57850;52.922;6.256;2022-09-24T11:00:29;4.88;;;1.58;;
12467;SDS011;57850;52.922;6.256;2022-09-24T11:05:59;7.47;;;2.00;;
12467;SDS011;57850;52.922;6.256;2022-09-24T11:08:46;6.10;;;2.00;;
12467;SDS011;57850;52.922;6.256;2022-09-24T11:11:26;5.13;;;1.50;;
12467;SDS011;57850;52.922;6.256;2022-09-24T11:14:07;4.45;;;1.70;;
12467;SDS011;57850;52.922;6.256;2022-09-24T11:16:53;5.00;;;1.90;;
12467;SDS011;57850;52.922;6.256;2022-09-24T11:19:47;9.20;;;1.95;;
12467;SDS011;57850;52.922;6.256;2022-09-24T11:22:28;6.82;;;1.65;;
12467;SDS011;57850;52.922;6.256;2022-09-24T11:25:10;9.10;;;2.30;;
12467;SDS011;57850;52.922;6.256;2022-09-24T11:27:50;6.50;;;2.00;;
12467;SDS011;57850;52.922;6.256;2022-09-24T11:30:26;9.75;;;2.88;;
12467;SDS011;57850;52.922;6.256;2022-09-24T11:33:03;8.27;;;2.83;;
12467;SDS011;57850;52.922;6.256;2022-09-24T11:35:46;5.90;;;1.98;;
12467;SDS011;57850;52.922;6.256;2022-09-24T11:38:33;7.20;;;2.78;;
12467;SDS011;57850;52.922;6.256;2022-09-24T11:41:22;8.52;;;2.75;;
12467;SDS011;57850;52.922;6.256;2022-09-24T11:44:11;9.93;;;2.22;;
12467;SDS011;57850;52.922;6.256;2022-09-24T11:46:59;6.85;;;2.28;;
12467;SDS011;57850;52.922;6.256;2022-09-24T11:49:44;6.68;;;2.83;;
12467;SDS011;57850;52.922;6.256;2022-09-24T11:52:25;6.28;;;2.80;;
12467;SDS011;57850;52.922;6.256;2022-09-24T11:54:59;8.07;;;2.70;;
12467;SDS011;57850;52.922;6.256;2022-09-24T11:57:30;8.82;;;4.68;;
12467;SDS011;57850;52.922;6.256;2022-09-24T12:00:03;9.20;;;2.90;;
12467;SDS011;57850;52.922;6.256;2022-09-24T12:02:35;11.15;;;4.00;;
12467;SDS011;57850;52.922;6.256;2022-09-24T12:05:07;8.05;;;3.65;;
12467;SDS011;57850;52.922;6.256;2022-09-24T12:07:41;11.90;;;2.65;;
12467;SDS011;57850;52.922;6.256;2022-09-24T12:10:21;7.13;;;3.25;;
12467;SDS011;57850;52.922;6.256;2022-09-24T12:12:56;8.23;;;3.33;;
12467;SDS011;57850;52.922;6.256;2022-09-24T12:15:29;8.63;;;4.32;;
12467;SDS011;57850;52.922;6.256;2022-09-24T12:18:05;6.75;;;2.05;;
12467;SDS011;57850;52.922;6.256;2022-09-24T12:20:40;10.45;;;2.92;;
12467;SDS011;57850;52.922;6.256;2022-09-24T12:23:12;6.28;;;2.25;;
12467;SDS011;57850;52.922;6.256;2022-09-24T12:25:43;6.90;;;1.90;;
12467;SDS011;57850;52.922;6.256;2022-09-24T12:28:12;4.68;;;2.55;;
12467;SDS011;57850;52.922;6.256;2022-09-24T12:31:01;6.70;;;2.47;;
12467;SDS011;57850;52.922;6.256;2022-09-24T12:33:52;8.65;;;2.88;;
12467;SDS011;57850;52.922;6.256;2022-09-24T12:36:30;5.55;;;1.88;;
12467;SDS011;57850;52.922;6.256;2022-09-24T12:39:08;9.73;;;2.45;;
12467;SDS011;57850;52.922;6.256;2022-09-24T12:41:38;7.30;;;1.98;;
12467;SDS011;57850;52.922;6.256;2022-09-24T12:44:10;5.07;;;1.95;;
12467;SDS011;57850;52.922;6.256;2022-09-24T12:46:44;13.23;;;2.28;;
12467;SDS011;57850;52.922;6.256;2022-09-24T12:49:17;10.23;;;2.20;;
12467;SDS011;57850;52.922;6.256;2022-09-24T12:51:54;7.00;;;2.22;;
12467;SDS011;57850;52.922;6.256;2022-09-24T12:54:25;8.32;;;2.58;;
12467;SDS011;57850;52.922;6.256;2022-09-24T12:57:07;8.88;;;2.25;;
12467;SDS011;57850;52.922;6.256;2022-09-24T12:59:47;14.98;;;3.65;;
12467;SDS011;57850;52.922;6.256;2022-09-24T13:02:17;7.82;;;2.05;;
12467;SDS011;57850;52.922;6.256;2022-09-24T13:07:52;6.65;;;3.10;;
12467;SDS011;57850;52.922;6.256;2022-09-24T13:10:24;12.13;;;2.92;;
12467;SDS011;57850;52.922;6.256;2022-09-24T13:12:54;11.30;;;2.50;;
12467;SDS011;57850;52.922;6.256;2022-09-24T13:15:33;8.05;;;3.35;;
12467;SDS011;57850;52.922;6.256;2022-09-24T13:18:03;8.18;;;2.25;;
12467;SDS011;57850;52.922;6.256;2022-09-24T13:20:33;5.05;;;1.85;;
12467;SDS011;57850;52.922;6.256;2022-09-24T13:23:12;9.15;;;2.40;;
12467;SDS011;57850;52.922;6.256;2022-09-24T13:25:40;10.13;;;2.50;;
12467;SDS011;57850;52.922;6.256;2022-09-24T13:28:20;8.40;;;2.38;;
12467;SDS011;57850;52.922;6.256;2022-09-24T13:30:52;7.35;;;1.88;;
12467;SDS011;57850;52.922;6.256;2022-09-24T13:33:25;8.60;;;2.40;;
12467;SDS011;57850;52.922;6.256;2022-09-24T13:36:00;7.45;;;1.90;;
12467;SDS011;57850;52.922;6.256;2022-09-24T13:38:32;6.93;;;2.10;;
12467;SDS011;57850;52.922;6.256;2022-09-24T13:41:02;12.48;;;2.45;;
12467;SDS011;57850;52.922;6.256;2022-09-24T13:43:38;7.00;;;2.00;;
12467;SDS011;57850;52.922;6.256;2022-09-24T13:46:11;7.13;;;2.00;;
12467;SDS011;57850;52.922;6.256;2022-09-24T13:48:41;5.55;;;1.80;;
12467;SDS011;57850;52.922;6.256;2022-09-24T13:51:14;9.68;;;1.75;;
12467;SDS011;57850;52.922;6.256;2022-09-24T13:53:45;5.75;;;2.45;;
12467;SDS011;57850;52.922;6.256;2022-09-24T13:56:17;4.22;;;1.52;;
12467;SDS011;57850;52.922;6.256;2022-09-24T13:58:45;7.53;;;1.60;;
12467;SDS011;57850;52.922;6.256;2022-09-24T14:01:15;6.53;;;2.17;;
12467;SDS011;57850;52.922;6.256;2022-09-24T14:03:50;7.18;;;2.08;;
12467;SDS011;57850;52.922;6.256;2022-09-24T14:06:19;9.07;;;1.73;;
12467;SDS011;57850;52.922;6.256;2022-09-24T14:09:00;9.70;;;2.05;;
12467;SDS011;57850;52.922;6.256;2022-09-24T14:11:27;8.50;;;1.85;;
12467;SDS011;57850;52.922;6.256;2022-09-24T14:13:54;8.75;;;2.28;;
12467;SDS011;57850;52.922;6.256;2022-09-24T14:16:22;8.55;;;1.80;;
12467;SDS011;57850;52.922;6.256;2022-09-24T14:18:59;5.70;;;1.83;;
12467;SDS011;57850;52.922;6.256;2022-09-24T14:21:29;5.78;;;1.77;;
12467;SDS011;57850;52.922;6.256;2022-09-24T14:24:01;8.27;;;2.33;;
12467;SDS011;57850;52.922;6.256;2022-09-24T14:26:31;6.07;;;1.80;;
12467;SDS011;57850;52.922;6.256;2022-09-24T14:29:03;6.68;;;1.85;;
12467;SDS011;57850;52.922;6.256;2022-09-24T14:31:40;5.57;;;1.55;;
12467;SDS011;57850;52.922;6.256;2022-09-24T14:34:12;3.65;;;1.42;;
12467;SDS011;57850;52.922;6.256;2022-09-24T14:36:57;6.55;;;1.90;;
12467;SDS011;57850;52.922;6.256;2022-09-24T14:39:35;4.47;;;1.80;;
12467;SDS011;57850;52.922;6.256;2022-09-24T14:42:06;3.45;;;1.42;;
12467;SDS011;57850;52.922;6.256;2022-09-24T14:44:35;8.43;;;1.88;;
12467;SDS011;57850;52.922;6.256;2022-09-24T14:47:19;4.38;;;1.45;;
12467;SDS011;57850;52.922;6.256;2022-09-24T14:49:51;7.32;;;1.98;;
12467;SDS011;57850;52.922;6.256;2022-09-24T14:52:26;6.47;;;1.80;;
12467;SDS011;57850;52.922;6.256;2022-09-24T14:55:01;5.97;;;1.52;;
12467;SDS011;57850;52.922;6.256;2022-09-24T14:57:37;3.95;;;1.50;;
12467;SDS011;57850;52.922;6.256;2022-09-24T15:00:17;2.65;;;1.17;;
12467;SDS011;57850;52.922;6.256;2022-09-24T15:02:46;6.18;;;1.73;;
12467;SDS011;57850;52.922;6.256;2022-09-24T15:05:16;4.00;;;1.70;;
12467;SDS011;57850;52.922;6.256;2022-09-24T15:07:48;7.40;;;1.60;;